Time;durP1;ratioP1;P1;durP2;ratioP2;P2;SDS_P1;SDS_P2;PMS_P1;PMS_P2;Temp;Humidity;BMP_temperature;BMP_pressure;BME280_temperature;BME280_humidity;BME280_pressure;Samples;Min_cycle;Max_cycle;Signal;HPM_P1;HPM_P2
2023/09/16 00:00:58;;;;;;;17.10;14.63;;;;;;;15.51;83.84;101369.84;5043083;28;20456;-66
2023/09/16 00:03:23;;;;;;;18.02;14.60;;;;;;;15.48;84.17;101371.06;5044067;28;20039;-65
2023/09/16 00:05:49;;;;;;;17.80;14.20;;;;;;;15.46;83.92;101369.59;5042620;28;20093;-65
2023/09/16 00:08:14;;;;;;;17.13;14.35;;;;;;;15.44;83.67;101376.97;5050277;28;20112;-65
2023/09/16 00:10:40;;;;;;;19.20;14.32;;;;;;;15.42;84.23;101370.97;5040302;28;20556;-66
2023/09/16 00:13:05;;;;;;;18.85;14.70;;;;;;;15.36;84.04;101359.19;5043996;28;20026;-65
2023/09/16 00:15:31;;;;;;;17.70;14.95;;;;;;;15.37;84.31;101363.53;5036723;28;20037;-65
2023/09/16 00:17:56;;;;;;;20.17;14.45;;;;;;;15.35;84.51;101362.88;5045042;28;20444;-65
2023/09/16 00:20:25;;;;;;;18.35;14.75;;;;;;;15.38;84.39;101367.88;5043131;28;20075;-65
2023/09/16 00:22:51;;;;;;;21.67;14.43;;;;;;;15.39;84.52;101366.00;5042303;28;20464;-65
2023/09/16 00:25:16;;;;;;;18.85;14.43;;;;;;;15.41;84.48;101372.00;5060721;28;20025;-65
2023/09/16 00:27:42;;;;;;;17.92;14.60;;;;;;;15.41;84.39;101372.84;5040396;28;20867;-65
2023/09/16 00:30:08;;;;;;;18.15;14.18;;;;;;;15.42;84.37;101368.31;5048925;28;20052;-66
2023/09/16 00:32:33;;;;;;;17.83;14.43;;;;;;;15.44;84.25;101379.66;5043318;28;20132;-65
2023/09/16 00:34:58;;;;;;;18.70;13.88;;;;;;;15.46;84.15;101377.63;5040429;28;20473;-65
2023/09/16 00:37:24;;;;;;;17.77;13.68;;;;;;;15.39;84.26;101374.88;5038313;28;20025;-65
2023/09/16 00:39:50;;;;;;;18.02;13.48;;;;;;;15.33;84.27;101372.13;5041016;28;20033;-65
2023/09/16 00:42:16;;;;;;;20.35;13.95;;;;;;;15.30;84.37;101372.47;5043023;28;20100;-65
2023/09/16 00:44:42;;;;;;;20.30;14.30;;;;;;;15.29;84.66;101373.50;5048671;28;20104;-65
2023/09/16 00:47:07;;;;;;;15.07;13.48;;;;;;;15.27;84.86;101365.66;5041606;28;20025;-66
2023/09/16 00:49:33;;;;;;;21.50;13.73;;;;;;;15.27;85.12;101362.16;5042584;28;20027;-66
2023/09/16 00:51:59;;;;;;;17.15;13.77;;;;;;;15.26;84.89;101365.84;5040549;28;20096;-66
2023/09/16 00:54:25;;;;;;;17.55;13.57;;;;;;;15.22;85.17;101367.25;5044384;28;20033;-66
2023/09/16 00:56:52;;;;;;;17.67;13.57;;;;;;;15.10;84.78;101365.06;5048264;28;20462;-66
2023/09/16 00:59:20;;;;;;;15.70;13.73;;;;;;;15.03;85.04;101369.47;5042104;28;20029;-65
2023/09/16 01:01:49;;;;;;;18.95;13.57;;;;;;;15.02;85.22;101361.66;5046469;28;20087;-65
2023/09/16 01:04:15;;;;;;;15.85;13.52;;;;;;;14.95;85.59;101364.25;5036137;28;20091;-65
2023/09/16 01:06:43;;;;;;;19.23;13.25;;;;;;;14.90;85.42;101355.94;5039302;28;20025;-65
2023/09/16 01:09:08;;;;;;;15.68;12.95;;;;;;;14.95;86.01;101347.38;5037814;28;20056;-65
2023/09/16 01:11:34;;;;;;;17.85;13.23;;;;;;;14.98;86.17;101352.34;5040829;28;20428;-65
2023/09/16 01:13:59;;;;;;;17.48;13.45;;;;;;;14.93;86.46;101349.41;5042829;28;20025;-65
2023/09/16 01:16:47;;;;;;;15.07;12.57;;;;;;;14.90;86.00;101350.59;5048949;28;20025;-65
2023/09/16 01:19:33;;;;;;;16.05;12.35;;;;;;;14.74;85.87;101351.63;5042306;28;20021;-65
2023/09/16 01:21:59;;;;;;;17.27;13.07;;;;;;;14.80;85.94;101350.06;5040388;28;20033;-65
2023/09/16 01:24:24;;;;;;;16.58;13.50;;;;;;;14.71;86.13;101351.16;5040494;28;20033;-65
2023/09/16 01:26:50;;;;;;;17.00;14.27;;;;;;;14.58;85.54;101341.13;5039203;28;20032;-65
2023/09/16 01:29:16;;;;;;;16.17;14.48;;;;;;;14.46;85.63;101340.78;5043490;28;20021;-64
2023/09/16 01:31:43;;;;;;;16.45;14.75;;;;;;;14.44;85.83;101345.44;5047150;28;20113;-64
2023/09/16 01:34:21;;;;;;;18.13;14.05;;;;;;;14.40;86.29;101340.63;5041175;28;20029;-65
2023/09/16 01:36:49;;;;;;;15.20;12.85;;;;;;;14.33;86.25;101343.19;5047568;28;20033;-65
2023/09/16 01:39:16;;;;;;;16.90;13.07;;;;;;;14.23;86.51;101348.00;5038928;28;20032;-65
2023/09/16 01:41:43;;;;;;;17.67;14.48;;;;;;;14.18;87.04;101342.38;5035803;28;20025;-65
2023/09/16 01:44:08;;;;;;;15.88;13.52;;;;;;;14.10;87.24;101339.75;5044445;28;20029;-65
2023/09/16 01:46:34;;;;;;;15.48;13.88;;;;;;;14.04;87.63;101335.97;5041305;28;20126;-64
2023/09/16 01:49:00;;;;;;;14.93;13.25;;;;;;;13.97;87.77;101343.06;5037001;28;20059;-65
2023/09/16 01:51:25;;;;;;;15.07;13.38;;;;;;;14.07;88.00;101342.78;5041328;28;20025;-65
2023/09/16 01:53:50;;;;;;;16.83;14.40;;;;;;;14.04;88.41;101338.63;5041787;28;20085;-65
2023/09/16 01:56:16;;;;;;;17.00;14.60;;;;;;;14.05;88.47;101347.47;5037877;28;20031;-64
2023/09/16 01:58:41;;;;;;;16.40;13.85;;;;;;;13.99;88.39;101333.00;5040346;28;20022;-65
2023/09/16 02:01:11;;;;;;;16.48;13.80;;;;;;;14.02;88.64;101339.84;5038040;28;20390;-65
2023/09/16 02:03:36;;;;;;;17.33;14.43;;;;;;;14.12;88.96;101337.72;5046439;28;20494;-65
2023/09/16 02:06:01;;;;;;;19.15;16.25;;;;;;;14.22;89.02;101335.66;5034683;28;20025;-65
2023/09/16 02:08:27;;;;;;;20.48;15.30;;;;;;;14.31;89.34;101336.38;5035780;28;20059;-65
2023/09/16 02:10:52;;;;;;;16.13;13.43;;;;;;;14.19;89.63;101338.69;5043581;28;20031;-65
2023/09/16 02:13:17;;;;;;;14.60;12.38;;;;;;;14.10;88.73;101337.09;5046391;28;20094;-65
2023/09/16 02:15:42;;;;;;;14.57;12.73;;;;;;;14.03;88.52;101333.47;5047418;28;20017;-65
2023/09/16 02:18:08;;;;;;;16.58;13.52;;;;;;;14.04;88.70;101337.81;5045169;28;20398;-65
2023/09/16 02:20:33;;;;;;;15.43;13.55;;;;;;;14.00;89.05;101337.34;5037611;28;20082;-65
2023/09/16 02:22:58;;;;;;;15.50;13.73;;;;;;;13.99;89.55;101341.03;5036612;28;20037;-65
2023/09/16 02:25:24;;;;;;;12.63;11.32;;;;;;;13.93;89.33;101329.22;5033344;28;20108;-65
2023/09/16 02:27:49;;;;;;;13.88;12.23;;;;;;;14.01;89.43;101325.66;5027348;28;20449;-65
2023/09/16 02:30:15;;;;;;;15.38;12.55;;;;;;;14.07;89.75;101334.78;5032075;28;20100;-65
2023/09/16 02:32:40;;;;;;;14.80;13.00;;;;;;;13.99;89.89;101326.84;5039886;28;20569;-65
2023/09/16 02:35:06;;;;;;;14.75;12.90;;;;;;;14.00;90.03;101328.50;5047472;28;20021;-65
2023/09/16 02:37:31;;;;;;;17.75;12.93;;;;;;;14.05;89.79;101326.94;5046087;28;20056;-65
2023/09/16 02:39:57;;;;;;;16.17;12.77;;;;;;;14.06;90.44;101327.78;5040092;28;20037;-65
2023/09/16 02:42:22;;;;;;;16.70;13.75;;;;;;;14.05;90.33;101323.44;5034667;28;20021;-66
2023/09/16 02:44:48;;;;;;;14.75;12.73;;;;;;;14.10;90.46;101323.72;5048212;28;20086;-65
2023/09/16 02:47:13;;;;;;;15.40;13.80;;;;;;;14.13;90.53;101328.69;5043359;28;20021;-65
2023/09/16 02:49:38;;;;;;;16.33;14.63;;;;;;;14.15;90.42;101327.50;5038593;28;20036;-65
2023/09/16 02:52:04;;;;;;;21.15;15.13;;;;;;;14.16;90.59;101323.00;5038792;28;20615;-65
2023/09/16 02:54:29;;;;;;;21.13;15.98;;;;;;;14.14;90.71;101317.84;5041976;28;20025;-65
2023/09/16 02:56:54;;;;;;;20.98;16.05;;;;;;;14.18;90.84;101321.81;5040629;28;20406;-65
2023/09/16 02:59:20;;;;;;;19.70;16.05;;;;;;;14.19;91.13;101328.81;5037958;28;20048;-65
2023/09/16 03:01:45;;;;;;;21.63;16.48;;;;;;;14.13;91.09;101302.00;5043951;28;20033;-65
2023/09/16 03:04:10;;;;;;;19.95;16.42;;;;;;;14.20;91.14;101314.47;5040468;28;20510;-65
2023/09/16 03:06:35;;;;;;;21.85;17.00;;;;;;;14.18;91.38;101316.47;5032546;28;20074;-65
2023/09/16 03:09:01;;;;;;;22.30;17.20;;;;;;;14.21;91.18;101315.28;5043620;28;20029;-65
2023/09/16 03:11:26;;;;;;;19.92;17.40;;;;;;;14.24;91.32;101317.59;5041790;28;20022;-65
2023/09/16 03:13:51;;;;;;;20.50;17.05;;;;;;;14.29;91.21;101315.19;5045229;28;20103;-64
2023/09/16 03:16:19;;;;;;;21.30;17.35;;;;;;;14.32;91.10;101317.50;5044146;28;20027;-65
2023/09/16 03:18:46;;;;;;;23.52;18.33;;;;;;;14.34;91.12;101314.63;5041844;28;20060;-65
2023/09/16 03:21:12;;;;;;;26.92;19.45;;;;;;;14.33;90.95;101305.78;5038646;28;20029;-65
2023/09/16 03:23:37;;;;;;;22.45;18.05;;;;;;;14.33;90.64;101307.63;5041903;28;20021;-65
2023/09/16 03:26:03;;;;;;;26.63;18.38;;;;;;;14.33;90.65;101310.31;5037925;28;20444;-65
2023/09/16 03:28:28;;;;;;;23.23;18.65;;;;;;;14.36;90.77;101315.28;5038129;28;20026;-65
2023/09/16 03:30:53;;;;;;;21.38;17.98;;;;;;;14.25;90.76;101284.53;5039419;28;20547;-65
2023/09/16 03:33:18;;;;;;;22.15;16.77;;;;;;;14.33;90.72;101308.47;5042340;28;20553;-66
2023/09/16 03:35:44;;;;;;;21.83;16.52;;;;;;;14.34;90.27;101301.28;5042624;28;20013;-65
2023/09/16 03:38:09;;;;;;;19.77;16.48;;;;;;;14.29;90.42;101304.50;5034824;28;20033;-65
2023/09/16 03:40:35;;;;;;;24.15;17.17;;;;;;;14.29;90.16;101296.50;5039023;28;20925;-66
2023/09/16 03:43:00;;;;;;;21.40;16.60;;;;;;;14.25;90.26;101303.22;5042488;28;20037;-65
2023/09/16 03:45:25;;;;;;;25.27;17.50;;;;;;;14.24;90.53;101298.88;5044372;28;20033;-65
2023/09/16 03:47:51;;;;;;;23.25;16.98;;;;;;;14.18;90.67;101297.78;5048451;28;20028;-65
2023/09/16 03:50:16;;;;;;;23.98;16.98;;;;;;;14.11;90.20;101293.34;5045575;28;20099;-65
2023/09/16 03:52:41;;;;;;;19.60;16.58;;;;;;;14.08;90.36;101296.38;5043188;28;20629;-65
2023/09/16 03:55:07;;;;;;;21.05;16.30;;;;;;;13.94;90.30;101293.50;5039230;28;20080;-65
2023/09/16 03:57:32;;;;;;;20.15;16.02;;;;;;;13.88;89.83;101288.06;5046851;28;20023;-65
2023/09/16 03:59:57;;;;;;;21.65;16.95;;;;;;;13.82;90.27;101286.94;5041859;28;20036;-65
2023/09/16 04:02:22;;;;;;;21.60;16.88;;;;;;;13.81;90.28;101292.44;5037153;28;20051;-65
2023/09/16 04:04:48;;;;;;;17.33;14.75;;;;;;;13.71;90.58;101289.22;5046685;28;20090;-65
2023/09/16 04:07:13;;;;;;;13.60;12.20;;;;;;;13.64;90.32;101287.28;5048610;28;20029;-65
2023/09/16 04:09:38;;;;;;;19.55;13.77;;;;;;;13.72;90.69;101282.88;5047530;28;20052;-65
2023/09/16 04:12:04;;;;;;;17.25;14.93;;;;;;;13.72;90.96;101288.19;5031805;28;20087;-65
2023/09/16 04:14:29;;;;;;;15.18;13.60;;;;;;;13.74;91.16;101292.34;5044498;28;20035;-65
2023/09/16 04:16:54;;;;;;;13.13;11.75;;;;;;;13.77;91.76;101285.81;5047761;28;20128;-65
2023/09/16 04:19:20;;;;;;;16.33;13.75;;;;;;;13.74;91.77;101296.84;5048456;28;20032;-65
2023/09/16 04:21:49;;;;;;;14.57;13.13;;;;;;;13.64;91.52;101297.13;5041259;28;20390;-65
2023/09/16 04:24:15;;;;;;;15.48;13.13;;;;;;;13.60;91.63;101290.47;5047123;28;21042;-65
2023/09/16 04:26:40;;;;;;;16.45;13.65;;;;;;;13.59;91.60;101294.16;5044187;28;20402;-65
2023/09/16 04:29:05;;;;;;;17.92;14.82;;;;;;;13.64;91.71;101295.28;5040278;28;20025;-65
2023/09/16 04:31:31;;;;;;;16.33;14.40;;;;;;;13.65;91.81;101293.44;5041444;28;20493;-65
2023/09/16 04:33:56;;;;;;;15.30;13.50;;;;;;;13.68;92.19;101293.06;5046536;28;20033;-65
2023/09/16 04:36:22;;;;;;;15.98;13.48;;;;;;;13.70;92.16;101290.22;5041943;28;20159;-65
2023/09/16 04:38:48;;;;;;;16.70;14.05;;;;;;;13.63;92.34;101293.63;5044748;28;20035;-65
2023/09/16 04:41:14;;;;;;;16.10;14.15;;;;;;;13.67;92.10;101285.25;5036338;28;20029;-65
2023/09/16 04:43:39;;;;;;;18.60;14.88;;;;;;;13.68;91.95;101276.22;5031108;28;20109;-65
2023/09/16 04:46:05;;;;;;;18.48;15.35;;;;;;;13.72;92.46;101277.53;5031361;28;20040;-65
2023/09/16 04:48:30;;;;;;;15.25;13.60;;;;;;;13.61;92.20;101276.13;5042903;28;20028;-65
2023/09/16 04:50:56;;;;;;;18.35;13.80;;;;;;;13.57;92.15;101290.81;5042515;28;20024;-65
2023/09/16 04:53:21;;;;;;;15.50;12.93;;;;;;;13.47;92.05;101279.56;5037988;28;20021;-65
2023/09/16 04:55:46;;;;;;;17.80;15.05;;;;;;;13.46;92.24;101288.56;5045246;28;20017;-65
2023/09/16 04:58:12;;;;;;;19.80;15.13;;;;;;;13.40;92.59;101286.63;5045892;28;20060;-65
2023/09/16 05:00:38;;;;;;;17.23;14.30;;;;;;;13.45;92.78;101281.59;5043012;28;20078;-65
2023/09/16 05:03:04;;;;;;;17.60;15.05;;;;;;;13.41;93.19;101285.63;5043264;28;20025;-65
2023/09/16 05:05:30;;;;;;;18.48;14.65;;;;;;;13.43;93.14;101292.44;5032454;28;20024;-65
2023/09/16 05:07:55;;;;;;;15.93;13.90;;;;;;;13.45;93.25;101292.25;5042795;28;20536;-65
2023/09/16 05:10:21;;;;;;;16.27;13.68;;;;;;;13.47;93.41;101285.72;5031856;28;20055;-65
2023/09/16 05:12:46;;;;;;;17.02;14.65;;;;;;;13.52;93.28;101287.84;5042198;28;20038;-65
2023/09/16 05:15:11;;;;;;;18.13;15.02;;;;;;;13.58;94.05;101292.47;5033346;28;20029;-65
2023/09/16 05:17:38;;;;;;;16.42;14.68;;;;;;;13.61;93.46;101282.28;5041619;28;20083;-65
2023/09/16 05:20:04;;;;;;;18.92;14.48;;;;;;;13.62;93.84;101283.13;5038425;28;20021;-65
2023/09/16 05:22:30;;;;;;;16.67;14.68;;;;;;;13.63;94.07;101284.78;5042455;28;20135;-65
2023/09/16 05:24:55;;;;;;;15.23;13.40;;;;;;;13.57;93.75;101282.81;5035278;28;20117;-65
2023/09/16 05:27:21;;;;;;;17.25;13.57;;;;;;;13.51;93.25;101284.34;5048405;28;20456;-65
2023/09/16 05:29:51;;;;;;;17.55;13.80;;;;;;;13.42;93.24;101282.78;5046167;28;20057;-65
2023/09/16 05:32:16;;;;;;;15.73;13.70;;;;;;;13.42;93.34;101288.09;5045876;28;20053;-65
2023/09/16 05:34:42;;;;;;;16.80;14.30;;;;;;;13.42;93.57;101290.78;5033146;28;20064;-64
2023/09/16 05:37:07;;;;;;;18.13;14.15;;;;;;;13.41;94.09;101286.44;5043472;28;20040;-65
2023/09/16 05:39:32;;;;;;;17.48;15.05;;;;;;;13.40;94.08;101282.13;5039379;28;20021;-65
2023/09/16 05:41:57;;;;;;;16.67;14.18;;;;;;;13.39;94.56;101291.13;5052007;28;21253;-65
2023/09/16 05:44:23;;;;;;;16.85;13.98;;;;;;;13.47;94.24;101290.22;5049336;28;20033;-65
2023/09/16 05:46:48;;;;;;;15.38;13.77;;;;;;;13.57;94.77;101282.81;5041731;28;20029;-65
2023/09/16 05:49:13;;;;;;;18.98;15.07;;;;;;;13.59;95.05;101278.16;5045782;28;20029;-65
2023/09/16 05:51:38;;;;;;;18.88;15.32;;;;;;;13.68;94.92;101287.75;5045740;28;20037;-65
2023/09/16 05:54:04;;;;;;;11.77;10.52;;;;;;;13.66;95.10;101289.75;5039202;28;20029;-65
2023/09/16 05:56:30;;;;;;;20.35;15.50;;;;;;;13.76;94.82;101295.66;5038737;28;20025;-66
2023/09/16 05:58:55;;;;;;;12.13;10.75;;;;;;;13.69;94.93;101289.41;5040209;28;20077;-65
2023/09/16 06:01:21;;;;;;;13.80;11.98;;;;;;;13.72;94.60;101291.69;5046096;28;20029;-65
2023/09/16 06:03:46;;;;;;;21.73;17.13;;;;;;;13.93;95.21;101301.69;5041352;28;20029;-65
2023/09/16 06:06:11;;;;;;;12.82;10.70;;;;;;;13.88;95.56;101293.41;5047543;28;20071;-65
2023/09/16 06:08:37;;;;;;;15.10;12.98;;;;;;;14.01;95.16;101296.28;5042488;28;20036;-65
2023/09/16 06:11:02;;;;;;;16.42;14.27;;;;;;;14.06;94.97;101290.38;5046950;28;20103;-65
2023/09/16 06:13:28;;;;;;;18.65;15.02;;;;;;;14.08;94.97;101299.03;5045607;28;20032;-65
2023/09/16 06:15:53;;;;;;;18.13;15.10;;;;;;;14.11;95.17;101302.19;5045585;28;20112;-65
2023/09/16 06:18:19;;;;;;;24.35;16.92;;;;;;;14.16;94.84;101305.13;5046377;28;20028;-65
2023/09/16 06:20:44;;;;;;;17.80;15.32;;;;;;;14.19;95.21;101307.47;5042565;28;20040;-65
2023/09/16 06:23:09;;;;;;;18.05;15.07;;;;;;;14.27;95.76;101314.56;5044917;28;20470;-65
2023/09/16 06:25:35;;;;;;;21.02;17.85;;;;;;;14.56;96.33;101311.09;5043251;28;20025;-65
2023/09/16 06:28:00;;;;;;;25.25;19.98;;;;;;;14.79;97.14;101302.97;5043688;28;20029;-65
2023/09/16 06:30:26;;;;;;;24.63;19.38;;;;;;;14.99;97.06;101301.34;5030757;28;20033;-65
2023/09/16 06:32:55;;;;;;;24.30;19.33;;;;;;;15.18;97.22;101308.75;5037953;28;20493;-65
2023/09/16 06:35:21;;;;;;;24.75;20.50;;;;;;;15.36;97.26;101300.31;5041895;28;20433;-65
2023/09/16 06:37:46;;;;;;;28.55;20.23;;;;;;;15.53;96.88;101297.38;5039930;28;20025;-65
2023/09/16 06:40:11;;;;;;;24.85;19.67;;;;;;;15.65;96.63;101302.06;5038808;28;20028;-65
2023/09/16 06:42:36;;;;;;;26.65;19.75;;;;;;;15.76;96.70;101306.88;5047888;28;20020;-65
2023/09/16 06:45:03;;;;;;;24.40;18.67;;;;;;;15.83;95.69;101320.31;5044529;28;20017;-65
2023/09/16 06:47:28;;;;;;;27.98;18.55;;;;;;;15.95;95.23;101317.97;5040834;28;20025;-65
2023/09/16 06:49:55;;;;;;;23.88;18.90;;;;;;;16.01;95.07;101314.50;5039658;28;20013;-65
2023/09/16 06:52:22;;;;;;;24.70;18.52;;;;;;;16.13;94.40;101326.34;5041798;28;20025;-65
2023/09/16 06:54:48;;;;;;;23.45;18.27;;;;;;;16.22;94.31;101321.69;5038595;28;20012;-64
2023/09/16 06:57:14;;;;;;;23.05;18.08;;;;;;;16.31;94.03;101325.84;5035451;28;20090;-65
2023/09/16 06:59:39;;;;;;;24.73;18.75;;;;;;;16.36;93.93;101331.44;5046237;28;20570;-66
2023/09/16 07:02:05;;;;;;;22.92;18.05;;;;;;;16.41;93.35;101329.81;5039881;28;20021;-66
2023/09/16 07:04:30;;;;;;;23.52;17.52;;;;;;;16.43;92.92;101324.25;5047331;28;20040;-66
2023/09/16 07:06:55;;;;;;;22.88;17.58;;;;;;;16.48;92.85;101321.84;5046449;28;20537;-66
2023/09/16 07:09:20;;;;;;;31.95;17.77;;;;;;;16.50;92.45;101325.16;5047910;28;20021;-66
2023/09/16 07:11:46;;;;;;;22.65;16.67;;;;;;;16.55;92.05;101327.25;5037817;28;20025;-67
2023/09/16 07:14:11;;;;;;;28.23;17.90;;;;;;;16.60;92.00;101314.88;5042546;28;20370;-66
2023/09/16 07:16:40;;;;;;;21.13;17.40;;;;;;;16.67;91.92;101320.31;5043745;28;20033;-67
2023/09/16 07:19:07;;;;;;;20.50;17.63;;;;;;;16.78;92.16;101316.25;5039425;28;20024;-66
2023/09/16 07:21:32;;;;;;;22.67;17.35;;;;;;;16.87;92.36;101309.69;5042170;28;20017;-66
2023/09/16 07:24:01;;;;;;;24.70;17.50;;;;;;;16.94;92.49;101311.34;5047662;28;20025;-66
2023/09/16 07:26:27;;;;;;;18.95;16.83;;;;;;;16.98;92.14;101312.59;5043871;28;20036;-66
2023/09/16 07:28:53;;;;;;;22.75;17.13;;;;;;;17.05;91.93;101317.97;5031817;28;20048;-66
2023/09/16 07:31:18;;;;;;;23.00;17.65;;;;;;;17.11;91.80;101317.22;5038321;28;20052;-66
2023/09/16 07:33:45;;;;;;;24.45;17.23;;;;;;;17.17;91.21;101320.94;5047074;28;20017;-66
2023/09/16 07:36:10;;;;;;;23.30;16.40;;;;;;;17.22;90.75;101326.50;5048726;28;20176;-67
2023/09/16 07:38:35;;;;;;;21.80;17.13;;;;;;;17.28;90.86;101320.34;5043115;28;20478;-67
2023/09/16 07:41:00;;;;;;;20.77;16.80;;;;;;;17.34;90.26;101312.28;5041977;28;20171;-66
2023/09/16 07:43:26;;;;;;;19.65;16.58;;;;;;;17.44;90.04;101322.66;5045217;28;20025;-66
2023/09/16 07:45:51;;;;;;;19.75;16.40;;;;;;;17.54;89.99;101324.94;5034158;28;20491;-66
2023/09/16 07:48:17;;;;;;;25.35;16.85;;;;;;;17.58;89.81;101332.38;5047720;28;20021;-66
2023/09/16 07:50:42;;;;;;;22.15;17.02;;;;;;;17.69;89.84;101324.78;5036094;28;20160;-66
2023/09/16 07:53:07;;;;;;;22.83;17.00;;;;;;;17.80;89.81;101333.06;5061379;28;20470;-66
2023/09/16 07:55:33;;;;;;;20.63;15.95;;;;;;;17.83;89.41;101329.94;5044213;28;20021;-66
2023/09/16 07:57:58;;;;;;;18.33;15.15;;;;;;;17.90;88.77;101338.00;5037676;28;20025;-66
2023/09/16 08:00:23;;;;;;;19.73;16.13;;;;;;;17.98;88.33;101328.94;5043162;28;20041;-66
2023/09/16 08:02:49;;;;;;;21.05;15.30;;;;;;;17.99;87.80;101331.41;5045087;28;20391;-67
2023/09/16 08:05:14;;;;;;;19.25;15.25;;;;;;;18.08;87.53;101330.16;5043661;28;20056;-67
2023/09/16 08:07:39;;;;;;;19.70;14.77;;;;;;;18.12;87.40;101331.38;5039748;28;20544;-67
2023/09/16 08:10:05;;;;;;;17.02;13.63;;;;;;;18.16;86.68;101323.72;5040359;28;20033;-67
2023/09/16 08:12:30;;;;;;;19.25;14.35;;;;;;;18.24;86.61;101339.66;5046286;28;20078;-66
2023/09/16 08:14:56;;;;;;;20.33;14.00;;;;;;;18.28;86.22;101340.91;5039592;28;20494;-67
2023/09/16 08:17:21;;;;;;;17.13;15.32;;;;;;;18.40;86.42;101335.69;5040355;28;20021;-66
2023/09/16 08:19:46;;;;;;;19.25;15.13;;;;;;;18.45;86.37;101339.41;5036196;28;20052;-67
2023/09/16 08:22:11;;;;;;;17.27;14.85;;;;;;;18.50;85.57;101344.16;5041361;28;20053;-67
2023/09/16 08:24:37;;;;;;;19.80;14.05;;;;;;;18.53;84.68;101343.75;5039602;28;20036;-67
2023/09/16 08:27:02;;;;;;;17.35;13.50;;;;;;;18.55;84.02;101339.00;5043133;28;20025;-67
2023/09/16 08:29:28;;;;;;;15.93;13.10;;;;;;;18.62;83.98;101345.19;5044071;28;20021;-67
2023/09/16 08:31:53;;;;;;;17.27;13.77;;;;;;;18.68;83.91;101343.53;5042749;28;20033;-67
2023/09/16 08:34:18;;;;;;;17.92;14.75;;;;;;;18.75;83.58;101347.84;5040033;28;20402;-69
2023/09/16 08:36:43;;;;;;;20.30;14.88;;;;;;;18.80;83.70;101347.22;5046130;28;20024;-67
2023/09/16 08:39:09;;;;;;;17.42;13.25;;;;;;;18.88;83.64;101338.91;5044342;28;20504;-67
2023/09/16 08:41:37;;;;;;;19.15;14.02;;;;;;;18.96;83.74;101348.59;5038188;28;20021;-67
2023/09/16 08:44:05;;;;;;;21.85;14.55;;;;;;;19.03;83.61;101352.09;5034662;28;20035;-67
2023/09/16 08:46:33;;;;;;;18.40;16.13;;;;;;;19.06;83.32;101354.34;5041983;28;20032;-64
2023/09/16 08:49:03;;;;;;;21.42;16.00;;;;;;;19.12;82.99;101351.66;5045810;28;20553;-65
2023/09/16 08:51:31;;;;;;;20.23;15.30;;;;;;;19.18;82.86;101358.88;5050189;28;20033;-64
2023/09/16 08:53:59;;;;;;;19.08;15.60;;;;;;;19.27;82.53;101350.53;5040189;28;20028;-64
2023/09/16 08:56:25;;;;;;;24.40;15.55;;;;;;;19.36;82.10;101360.81;5047702;28;20025;-64
2023/09/16 08:58:50;;;;;;;22.05;15.32;;;;;;;19.43;82.15;101363.50;5045923;28;20025;-65
2023/09/16 09:01:17;;;;;;;22.95;16.38;;;;;;;19.47;81.74;101360.16;5040410;28;20533;-64
2023/09/16 09:03:43;;;;;;;18.77;15.43;;;;;;;19.52;81.17;101355.97;5036206;28;20040;-64
2023/09/16 09:06:10;;;;;;;18.30;15.55;;;;;;;19.56;81.01;101362.63;5042994;28;20029;-65
2023/09/16 09:08:35;;;;;;;18.50;15.18;;;;;;;19.68;80.76;101361.72;5043265;28;20024;-64
2023/09/16 09:11:01;;;;;;;21.40;14.18;;;;;;;19.78;80.10;101358.53;5047298;28;20029;-64
2023/09/16 09:13:28;;;;;;;18.85;14.52;;;;;;;19.89;80.23;101367.78;5043221;28;20036;-65
2023/09/16 09:15:59;;;;;;;18.17;13.85;;;;;;;19.94;79.90;101365.25;5049610;28;20620;-65
2023/09/16 09:18:25;;;;;;;16.98;14.35;;;;;;;20.05;79.26;101373.47;5043590;28;20045;-65
2023/09/16 09:20:51;;;;;;;18.45;14.13;;;;;;;20.11;78.96;101361.78;5048333;28;20475;-64
2023/09/16 09:23:16;;;;;;;19.45;12.35;;;;;;;20.22;78.39;101371.00;5043018;28;20685;-64
2023/09/16 09:25:41;;;;;;;15.15;11.60;;;;;;;20.36;77.77;101369.03;5038485;28;20100;-64
2023/09/16 09:28:07;;;;;;;17.27;12.02;;;;;;;20.49;77.10;101371.63;5040937;28;20816;-64
2023/09/16 09:30:33;;;;;;;17.50;12.18;;;;;;;20.66;76.77;101372.69;5048993;28;20028;-65
2023/09/16 09:32:59;;;;;;;17.15;12.35;;;;;;;20.89;76.44;101369.34;5048085;28;20025;-65
2023/09/16 09:35:26;;;;;;;15.63;11.60;;;;;;;20.97;75.74;101379.81;5046316;28;20382;-65
2023/09/16 09:37:52;;;;;;;14.85;12.43;;;;;;;21.10;75.15;101373.41;5041965;28;20033;-64
2023/09/16 09:40:18;;;;;;;21.67;12.95;;;;;;;21.20;74.65;101371.03;5041091;28;20086;-65
2023/09/16 09:42:47;;;;;;;17.73;12.40;;;;;;;21.41;74.98;101377.84;5045359;28;20021;-64
2023/09/16 09:45:14;;;;;;;15.65;12.02;;;;;;;21.61;74.13;101382.97;5049613;28;20108;-65
2023/09/16 09:47:40;;;;;;;18.33;12.02;;;;;;;21.73;73.25;101388.41;5044290;28;20128;-65
2023/09/16 09:50:08;;;;;;;16.08;12.40;;;;;;;21.88;72.20;101381.50;5039743;28;20104;-64
2023/09/16 09:52:36;;;;;;;23.80;12.52;;;;;;;22.05;72.08;101381.69;5035909;28;20041;-67
2023/09/16 09:55:02;;;;;;;17.50;11.98;;;;;;;22.15;71.48;101387.34;5040826;28;20090;-67
2023/09/16 09:57:28;;;;;;;14.60;11.88;;;;;;;22.20;70.56;101384.75;5044389;28;20167;-66
2023/09/16 09:59:55;;;;;;;17.35;11.95;;;;;;;22.25;70.37;101389.44;5043966;28;20079;-67
2023/09/16 10:02:27;;;;;;;15.00;11.90;;;;;;;22.21;69.79;101390.97;5045103;28;20482;-67
2023/09/16 10:05:01;;;;;;;18.73;11.93;;;;;;;22.24;69.47;101382.41;5046159;28;20033;-67
2023/09/16 10:07:28;;;;;;;13.15;10.80;;;;;;;22.22;69.69;101381.81;5040977;28;20033;-67
2023/09/16 10:09:53;;;;;;;14.40;10.50;;;;;;;22.22;69.38;101379.09;5037762;28;20021;-67
2023/09/16 10:12:20;;;;;;;15.00;10.25;;;;;;;22.20;69.11;101375.81;5049031;28;20421;-68
2023/09/16 10:14:46;;;;;;;15.02;10.35;;;;;;;22.30;68.76;101369.84;5041342;28;20026;-67
2023/09/16 10:17:12;;;;;;;14.05;10.60;;;;;;;22.33;68.27;101366.66;5045690;28;20024;-65
2023/09/16 10:19:38;;;;;;;12.75;10.23;;;;;;;22.42;67.98;101371.47;5044222;28;20076;-65
2023/09/16 10:22:03;;;;;;;14.60;10.73;;;;;;;22.51;67.28;101370.03;5045444;28;20044;-65
2023/09/16 10:24:28;;;;;;;15.05;11.10;;;;;;;22.67;67.63;101364.97;5046145;28;20021;-65
2023/09/16 10:26:57;;;;;;;15.05;10.55;;;;;;;22.81;67.45;101371.78;5038644;28;20516;-65
2023/09/16 10:29:24;;;;;;;14.23;10.38;;;;;;;22.91;66.64;101372.03;5036883;28;20068;-65
2023/09/16 10:31:50;;;;;;;15.13;10.57;;;;;;;22.99;66.06;101374.34;5042314;28;20099;-65
2023/09/16 10:34:15;;;;;;;12.38;9.50;;;;;;;23.07;65.54;101373.16;5039390;28;20059;-65
2023/09/16 10:36:40;;;;;;;13.18;9.75;;;;;;;23.11;65.26;101371.59;5041950;28;20095;-66
2023/09/16 10:39:07;;;;;;;17.15;10.60;;;;;;;23.19;65.87;101371.25;5038702;28;20025;-65
2023/09/16 10:41:33;;;;;;;13.02;9.95;;;;;;;23.31;65.08;101365.75;5043716;28;20025;-65
2023/09/16 10:44:01;;;;;;;14.25;10.43;;;;;;;23.28;64.82;101368.97;5037989;28;20033;-65
2023/09/16 10:46:28;;;;;;;15.52;10.90;;;;;;;23.37;64.75;101362.91;5042912;28;20098;-65
2023/09/16 10:48:53;;;;;;;12.27;10.35;;;;;;;23.37;63.25;101357.47;5042187;28;20398;-65
2023/09/16 10:51:22;;;;;;;14.90;10.75;;;;;;;23.38;63.39;101358.31;5030280;28;20028;-67
2023/09/16 10:53:58;;;;;;;14.40;10.50;;;;;;;23.43;63.20;101358.41;5037652;28;20134;-67
2023/09/16 10:56:32;;;;;;;13.52;9.45;;;;;;;23.58;63.48;101361.41;5042301;28;20017;-67
2023/09/16 10:59:07;;;;;;;13.40;10.15;;;;;;;23.69;63.03;101357.81;5040404;28;20506;-67
2023/09/16 11:01:47;;;;;;;11.60;8.52;;;;;;;23.83;62.79;101357.50;5035748;28;20135;-67
2023/09/16 11:04:17;;;;;;;15.68;9.90;;;;;;;23.93;62.96;101347.63;5037566;28;20020;-68